sensor_id;sensor_type;location;lat;lon;timestamp;P1;durP1;ratioP1;P2;durP2;ratioP2
71648;SDS011;70112;45.624;11.760;2023-07-29T00:01:37;8.60;;;5.90;;
71648;SDS011;70112;45.624;11.760;2023-07-29T00:04:05;8.30;;;6.00;;
71648;SDS011;70112;45.624;11.760;2023-07-29T00:06:30;8.30;;;5.70;;
71648;SDS011;70112;45.624;11.760;2023-07-29T00:08:56;7.10;;;6.00;;
71648;SDS011;70112;45.624;11.760;2023-07-29T00:11:21;6.70;;;5.80;;
71648;SDS011;70112;45.624;11.760;2023-07-29T00:13:47;7.90;;;5.90;;
71648;SDS011;70112;45.624;11.760;2023-07-29T00:16:15;9.10;;;5.90;;
71648;SDS011;70112;45.624;11.760;2023-07-29T00:18:43;8.20;;;6.50;;
71648;SDS011;70112;45.624;11.760;2023-07-29T00:21:09;7.10;;;5.50;;
71648;SDS011;70112;45.624;11.760;2023-07-29T00:23:34;6.60;;;5.90;;
71648;SDS011;70112;45.624;11.760;2023-07-29T00:26:00;7.10;;;5.70;;
71648;SDS011;70112;45.624;11.760;2023-07-29T00:28:25;8.50;;;6.10;;
71648;SDS011;70112;45.624;11.760;2023-07-29T00:30:51;6.30;;;5.10;;
71648;SDS011;70112;45.624;11.760;2023-07-29T00:33:16;6.10;;;5.40;;
71648;SDS011;70112;45.624;11.760;2023-07-29T00:35:42;8.40;;;5.90;;
71648;SDS011;70112;45.624;11.760;2023-07-29T00:38:07;6.50;;;5.70;;
71648;SDS011;70112;45.624;11.760;2023-07-29T00:40:35;7.60;;;5.20;;
71648;SDS011;70112;45.624;11.760;2023-07-29T00:43:02;9.80;;;5.60;;
71648;SDS011;70112;45.624;11.760;2023-07-29T00:45:29;9.10;;;5.40;;
71648;SDS011;70112;45.624;11.760;2023-07-29T00:47:54;6.90;;;5.70;;
71648;SDS011;70112;45.624;11.760;2023-07-29T00:50:20;6.50;;;5.40;;
71648;SDS011;70112;45.624;11.760;2023-07-29T00:52:46;8.20;;;5.50;;
71648;SDS011;70112;45.624;11.760;2023-07-29T00:55:13;6.10;;;5.30;;
71648;SDS011;70112;45.624;11.760;2023-07-29T00:57:39;7.60;;;5.20;;
71648;SDS011;70112;45.624;11.760;2023-07-29T01:00:06;9.60;;;5.80;;
71648;SDS011;70112;45.624;11.760;2023-07-29T01:02:32;6.20;;;5.60;;
71648;SDS011;70112;45.624;11.760;2023-07-29T01:04:58;7.20;;;5.40;;
71648;SDS011;70112;45.624;11.760;2023-07-29T01:07:33;9.80;;;5.90;;
71648;SDS011;70112;45.624;11.760;2023-07-29T01:13:33;7.00;;;5.10;;
71648;SDS011;70112;45.624;11.760;2023-07-29T01:16:17;8.00;;;5.40;;
71648;SDS011;70112;45.624;11.760;2023-07-29T01:19:06;8.30;;;5.50;;
71648;SDS011;70112;45.624;11.760;2023-07-29T01:21:35;9.40;;;6.00;;
71648;SDS011;70112;45.624;11.760;2023-07-29T01:24:01;6.10;;;5.60;;
71648;SDS011;70112;45.624;11.760;2023-07-29T01:26:27;7.20;;;6.10;;
71648;SDS011;70112;45.624;11.760;2023-07-29T01:28:56;6.30;;;5.20;;
71648;SDS011;70112;45.624;11.760;2023-07-29T01:31:38;7.50;;;6.00;;
71648;SDS011;70112;45.624;11.760;2023-07-29T01:34:25;9.80;;;5.90;;
71648;SDS011;70112;45.624;11.760;2023-07-29T01:36:54;9.00;;;5.70;;
71648;SDS011;70112;45.624;11.760;2023-07-29T01:39:23;8.20;;;5.60;;
71648;SDS011;70112;45.624;11.760;2023-07-29T01:41:50;7.00;;;5.60;;
71648;SDS011;70112;45.624;11.760;2023-07-29T01:44:17;7.00;;;5.80;;
71648;SDS011;70112;45.624;11.760;2023-07-29T01:46:44;6.40;;;5.80;;
71648;SDS011;70112;45.624;11.760;2023-07-29T01:49:09;8.70;;;6.00;;
71648;SDS011;70112;45.624;11.760;2023-07-29T01:51:35;8.20;;;5.70;;
71648;SDS011;70112;45.624;11.760;2023-07-29T01:54:01;6.50;;;5.70;;
71648;SDS011;70112;45.624;11.760;2023-07-29T01:56:26;6.60;;;5.80;;
71648;SDS011;70112;45.624;11.760;2023-07-29T01:58:52;9.50;;;5.90;;
71648;SDS011;70112;45.624;11.760;2023-07-29T02:01:17;8.70;;;6.00;;
71648;SDS011;70112;45.624;11.760;2023-07-29T02:03:43;7.10;;;6.40;;
71648;SDS011;70112;45.624;11.760;2023-07-29T02:06:08;8.00;;;6.10;;
71648;SDS011;70112;45.624;11.760;2023-07-29T02:08:34;7.60;;;5.80;;
71648;SDS011;70112;45.624;11.760;2023-07-29T02:43:38;7.60;;;5.80;;
71648;SDS011;70112;45.624;11.760;2023-07-29T02:46:05;6.90;;;5.40;;
71648;SDS011;70112;45.624;11.760;2023-07-29T02:48:30;9.60;;;5.60;;
71648;SDS011;70112;45.624;11.760;2023-07-29T02:50:56;8.50;;;5.70;;
71648;SDS011;70112;45.624;11.760;2023-07-29T02:53:22;10.70;;;6.20;;
71648;SDS011;70112;45.624;11.760;2023-07-29T02:55:48;7.40;;;5.60;;
71648;SDS011;70112;45.624;11.760;2023-07-29T02:58:14;8.20;;;5.40;;
71648;SDS011;70112;45.624;11.760;2023-07-29T03:00:39;5.60;;;5.00;;
71648;SDS011;70112;45.624;11.760;2023-07-29T03:03:09;7.80;;;5.30;;
71648;SDS011;70112;45.624;11.760;2023-07-29T03:05:35;7.70;;;5.40;;
71648;SDS011;70112;45.624;11.760;2023-07-29T03:08:00;7.90;;;5.70;;
71648;SDS011;70112;45.624;11.760;2023-07-29T03:10:26;8.70;;;5.80;;
71648;SDS011;70112;45.624;11.760;2023-07-29T03:12:54;9.10;;;5.80;;
71648;SDS011;70112;45.624;11.760;2023-07-29T03:15:24;6.30;;;5.30;;
71648;SDS011;70112;45.624;11.760;2023-07-29T03:17:51;5.80;;;5.20;;
71648;SDS011;70112;45.624;11.760;2023-07-29T03:20:17;8.70;;;5.40;;
71648;SDS011;70112;45.624;11.760;2023-07-29T03:22:45;6.40;;;5.10;;
71648;SDS011;70112;45.624;11.760;2023-07-29T03:25:11;7.50;;;5.40;;
71648;SDS011;70112;45.624;11.760;2023-07-29T03:27:37;7.50;;;5.80;;
71648;SDS011;70112;45.624;11.760;2023-07-29T03:30:03;8.40;;;4.90;;
71648;SDS011;70112;45.624;11.760;2023-07-29T03:32:30;7.60;;;5.30;;
71648;SDS011;70112;45.624;11.760;2023-07-29T03:34:55;7.70;;;5.00;;
71648;SDS011;70112;45.624;11.760;2023-07-29T03:37:21;10.00;;;6.20;;
71648;SDS011;70112;45.624;11.760;2023-07-29T03:39:47;10.00;;;7.00;;
71648;SDS011;70112;45.624;11.760;2023-07-29T03:42:12;9.50;;;6.60;;
71648;SDS011;70112;45.624;11.760;2023-07-29T03:44:38;17.00;;;7.70;;
71648;SDS011;70112;45.624;11.760;2023-07-29T03:47:05;13.40;;;7.70;;
71648;SDS011;70112;45.624;11.760;2023-07-29T03:49:31;13.00;;;7.30;;
71648;SDS011;70112;45.624;11.760;2023-07-29T03:51:57;8.20;;;6.80;;
71648;SDS011;70112;45.624;11.760;2023-07-29T03:54:22;10.30;;;6.70;;
71648;SDS011;70112;45.624;11.760;2023-07-29T03:56:48;10.40;;;6.80;;
71648;SDS011;70112;45.624;11.760;2023-07-29T03:59:14;9.10;;;6.40;;
71648;SDS011;70112;45.624;11.760;2023-07-29T04:01:39;11.00;;;6.50;;
71648;SDS011;70112;45.624;11.760;2023-07-29T04:04:05;7.80;;;7.00;;
71648;SDS011;70112;45.624;11.760;2023-07-29T04:06:30;8.50;;;7.50;;
71648;SDS011;70112;45.624;11.760;2023-07-29T04:08:57;12.70;;;7.80;;
71648;SDS011;70112;45.624;11.760;2023-07-29T04:11:23;13.20;;;8.60;;
71648;SDS011;70112;45.624;11.760;2023-07-29T04:13:49;13.00;;;9.10;;
71648;SDS011;70112;45.624;11.760;2023-07-29T04:16:14;16.10;;;10.10;;
71648;SDS011;70112;45.624;11.760;2023-07-29T04:18:42;15.80;;;9.60;;
71648;SDS011;70112;45.624;11.760;2023-07-29T04:21:08;14.80;;;9.50;;
71648;SDS011;70112;45.624;11.760;2023-07-29T04:23:34;14.00;;;9.00;;
71648;SDS011;70112;45.624;11.760;2023-07-29T04:26:00;15.00;;;9.30;;
71648;SDS011;70112;45.624;11.760;2023-07-29T04:28:26;15.30;;;10.10;;
71648;SDS011;70112;45.624;11.760;2023-07-29T04:30:51;14.90;;;10.90;;
71648;SDS011;70112;45.624;11.760;2023-07-29T04:33:17;18.10;;;10.70;;
71648;SDS011;70112;45.624;11.760;2023-07-29T04:35:42;12.80;;;10.00;;
71648;SDS011;70112;45.624;11.760;2023-07-29T04:38:08;18.10;;;11.50;;
71648;SDS011;70112;45.624;11.760;2023-07-29T04:40:33;19.40;;;10.20;;
71648;SDS011;70112;45.624;11.760;2023-07-29T04:43:01;17.00;;;10.90;;
71648;SDS011;70112;45.624;11.760;2023-07-29T04:45:30;18.70;;;10.30;;
71648;SDS011;70112;45.624;11.760;2023-07-29T04:47:57;15.80;;;9.70;;
71648;SDS011;70112;45.624;11.760;2023-07-29T04:50:24;10.40;;;8.10;;
71648;SDS011;70112;45.624;11.760;2023-07-29T04:52:49;8.30;;;6.80;;
71648;SDS011;70112;45.624;11.760;2023-07-29T04:55:15;8.30;;;6.30;;
71648;SDS011;70112;45.624;11.760;2023-07-29T04:57:40;10.20;;;6.20;;
71648;SDS011;70112;45.624;11.760;2023-07-29T05:00:06;10.30;;;6.20;;
71648;SDS011;70112;45.624;11.760;2023-07-29T05:02:32;10.10;;;6.30;;
71648;SDS011;70112;45.624;11.760;2023-07-29T05:04:58;11.10;;;5.80;;
71648;SDS011;70112;45.624;11.760;2023-07-29T05:07:23;7.30;;;5.20;;
71648;SDS011;70112;45.624;11.760;2023-07-29T05:09:49;9.30;;;5.70;;
71648;SDS011;70112;45.624;11.760;2023-07-29T05:12:14;10.30;;;5.30;;
71648;SDS011;70112;45.624;11.760;2023-07-29T05:14:40;11.90;;;5.50;;
71648;SDS011;70112;45.624;11.760;2023-07-29T05:17:05;6.90;;;4.80;;
71648;SDS011;70112;45.624;11.760;2023-07-29T05:19:31;11.30;;;5.40;;
71648;SDS011;70112;45.624;11.760;2023-07-29T05:21:57;6.50;;;4.80;;
71648;SDS011;70112;45.624;11.760;2023-07-29T05:24:23;6.70;;;5.20;;
71648;SDS011;70112;45.624;11.760;2023-07-29T05:26:49;11.30;;;4.70;;
71648;SDS011;70112;45.624;11.760;2023-07-29T05:29:14;11.30;;;4.90;;
71648;SDS011;70112;45.624;11.760;2023-07-29T05:31:40;6.60;;;5.00;;
71648;SDS011;70112;45.624;11.760;2023-07-29T05:34:06;7.50;;;5.00;;
71648;SDS011;70112;45.624;11.760;2023-07-29T05:36:31;10.20;;;5.20;;
71648;SDS011;70112;45.624;11.760;2023-07-29T05:38:57;7.20;;;5.10;;
71648;SDS011;70112;45.624;11.760;2023-07-29T05:41:22;6.90;;;4.70;;
71648;SDS011;70112;45.624;11.760;2023-07-29T05:43:48;8.80;;;4.50;;
71648;SDS011;70112;45.624;11.760;2023-07-29T05:46:13;6.40;;;5.30;;
71648;SDS011;70112;45.624;11.760;2023-07-29T05:48:39;7.90;;;5.30;;
71648;SDS011;70112;45.624;11.760;2023-07-29T05:51:04;10.10;;;5.60;;
71648;SDS011;70112;45.624;11.760;2023-07-29T05:53:33;23.10;;;6.30;;
71648;SDS011;70112;45.624;11.760;2023-07-29T05:55:58;7.00;;;5.40;;
71648;SDS011;70112;45.624;11.760;2023-07-29T05:58:24;9.30;;;5.80;;
71648;SDS011;70112;45.624;11.760;2023-07-29T06:00:49;15.50;;;5.70;;
71648;SDS011;70112;45.624;11.760;2023-07-29T06:03:15;6.30;;;5.20;;
71648;SDS011;70112;45.624;11.760;2023-07-29T06:05:40;13.20;;;5.50;;
71648;SDS011;70112;45.624;11.760;2023-07-29T06:53:49;4.70;;;4.20;;
71648;SDS011;70112;45.624;11.760;2023-07-29T06:56:15;11.40;;;5.10;;
71648;SDS011;70112;45.624;11.760;2023-07-29T06:58:40;4.90;;;4.10;;
71648;SDS011;70112;45.624;11.760;2023-07-29T07:01:06;9.80;;;4.50;;
71648;SDS011;70112;45.624;11.760;2023-07-29T07:03:32;8.60;;;4.90;;
71648;SDS011;70112;45.624;11.760;2023-07-29T07:05:58;9.60;;;4.50;;
71648;SDS011;70112;45.624;11.760;2023-07-29T07:08:24;4.60;;;4.00;;
71648;SDS011;70112;45.624;11.760;2023-07-29T07:10:49;5.70;;;4.00;;
71648;SDS011;70112;45.624;11.760;2023-07-29T07:13:15;8.30;;;5.20;;
71648;SDS011;70112;45.624;11.760;2023-07-29T07:15:40;5.10;;;4.00;;
71648;SDS011;70112;45.624;11.760;2023-07-29T07:18:06;6.40;;;4.10;;
71648;SDS011;70112;45.624;11.760;2023-07-29T07:20:32;7.00;;;4.30;;
71648;SDS011;70112;45.624;11.760;2023-07-29T07:22:57;13.90;;;5.10;;
71648;SDS011;70112;45.624;11.760;2023-07-29T07:25:23;7.70;;;4.60;;
71648;SDS011;70112;45.624;11.760;2023-07-29T07:27:48;9.40;;;4.10;;
71648;SDS011;70112;45.624;11.760;2023-07-29T07:30:14;9.00;;;3.80;;
71648;SDS011;70112;45.624;11.760;2023-07-29T07:32:39;10.30;;;4.00;;
71648;SDS011;70112;45.624;11.760;2023-07-29T07:35:05;5.40;;;3.60;;
71648;SDS011;70112;45.624;11.760;2023-07-29T07:37:31;9.00;;;4.30;;
71648;SDS011;70112;45.624;11.760;2023-07-29T07:39:56;7.20;;;4.00;;
71648;SDS011;70112;45.624;11.760;2023-07-29T07:42:22;8.00;;;3.80;;
71648;SDS011;70112;45.624;11.760;2023-07-29T07:44:47;8.90;;;4.10;;
71648;SDS011;70112;45.624;11.760;2023-07-29T07:47:13;8.90;;;4.00;;
71648;SDS011;70112;45.624;11.760;2023-07-29T07:49:38;7.20;;;4.20;;
71648;SDS011;70112;45.624;11.760;2023-07-29T07:52:04;10.10;;;3.80;;
71648;SDS011;70112;45.624;11.760;2023-07-29T07:54:30;5.50;;;3.90;;
71648;SDS011;70112;45.624;11.760;2023-07-29T07:56:55;4.00;;;3.40;;
71648;SDS011;70112;45.624;11.760;2023-07-29T07:59:21;15.00;;;4.50;;
71648;SDS011;70112;45.624;11.760;2023-07-29T08:01:46;20.80;;;4.90;;
71648;SDS011;70112;45.624;11.760;2023-07-29T08:04:12;39.90;;;6.00;;
71648;SDS011;70112;45.624;11.760;2023-07-29T08:06:38;28.00;;;5.60;;
71648;SDS011;70112;45.624;11.760;2023-07-29T08:09:03;23.20;;;4.80;;
71648;SDS011;70112;45.624;11.760;2023-07-29T08:11:28;16.50;;;4.00;;
71648;SDS011;70112;45.624;11.760;2023-07-29T08:13:54;11.60;;;3.90;;
71648;SDS011;70112;45.624;11.760;2023-07-29T08:16:19;7.90;;;3.80;;
71648;SDS011;70112;45.624;11.760;2023-07-29T08:18:45;8.00;;;3.30;;
71648;SDS011;70112;45.624;11.760;2023-07-29T08:21:10;8.30;;;3.60;;
71648;SDS011;70112;45.624;11.760;2023-07-29T08:23:36;5.90;;;3.50;;
71648;SDS011;70112;45.624;11.760;2023-07-29T08:26:03;5.40;;;3.80;;
71648;SDS011;70112;45.624;11.760;2023-07-29T08:28:36;6.80;;;4.40;;
71648;SDS011;70112;45.624;11.760;2023-07-29T08:31:03;8.60;;;4.00;;
71648;SDS011;70112;45.624;11.760;2023-07-29T08:33:30;7.00;;;3.90;;
71648;SDS011;70112;45.624;11.760;2023-07-29T08:35:56;6.20;;;3.30;;
71648;SDS011;70112;45.624;11.760;2023-07-29T08:38:22;7.70;;;3.60;;
71648;SDS011;70112;45.624;11.760;2023-07-29T08:44:36;5.60;;;3.50;;
71648;SDS011;70112;45.624;11.760;2023-07-29T08:46:49;7.00;;;3.80;;
71648;SDS011;70112;45.624;11.760;2023-07-29T08:49:16;4.50;;;3.70;;
71648;SDS011;70112;45.624;11.760;2023-07-29T08:51:47;6.30;;;3.80;;
71648;SDS011;70112;45.624;11.760;2023-07-29T08:54:16;6.10;;;3.40;;
71648;SDS011;70112;45.624;11.760;2023-07-29T08:56:42;4.50;;;3.00;;
71648;SDS011;70112;45.624;11.760;2023-07-29T08:59:09;7.70;;;3.40;;
71648;SDS011;70112;45.624;11.760;2023-07-29T09:01:36;15.00;;;3.60;;
71648;SDS011;70112;45.624;11.760;2023-07-29T09:04:03;10.70;;;4.60;;
71648;SDS011;70112;45.624;11.760;2023-07-29T09:06:31;7.20;;;3.20;;
71648;SDS011;70112;45.624;11.760;2023-07-29T09:08:58;8.50;;;3.90;;
71648;SDS011;70112;45.624;11.760;2023-07-29T09:11:25;5.90;;;3.50;;
71648;SDS011;70112;45.624;11.760;2023-07-29T09:13:50;6.40;;;3.50;;
71648;SDS011;70112;45.624;11.760;2023-07-29T09:16:18;5.50;;;3.50;;
71648;SDS011;70112;45.624;11.760;2023-07-29T09:18:43;8.20;;;3.80;;
71648;SDS011;70112;45.624;11.760;2023-07-29T09:21:09;10.20;;;3.90;;
71648;SDS011;70112;45.624;11.760;2023-07-29T09:23:41;8.20;;;3.80;;
71648;SDS011;70112;45.624;11.760;2023-07-29T09:26:07;9.60;;;4.00;;
71648;SDS011;70112;45.624;11.760;2023-07-29T09:28:35;8.70;;;3.80;;
71648;SDS011;70112;45.624;11.760;2023-07-29T09:31:02;10.80;;;4.20;;
71648;SDS011;70112;45.624;11.760;2023-07-29T09:33:35;7.30;;;3.70;;
71648;SDS011;70112;45.624;11.760;2023-07-29T09:36:10;6.40;;;3.70;;
71648;SDS011;70112;45.624;11.760;2023-07-29T09:38:37;7.00;;;3.70;;
71648;SDS011;70112;45.624;11.760;2023-07-29T09:41:02;8.00;;;3.50;;
71648;SDS011;70112;45.624;11.760;2023-07-29T09:43:33;6.20;;;3.60;;
71648;SDS011;70112;45.624;11.760;2023-07-29T09:46:05;7.10;;;3.60;;
71648;SDS011;70112;45.624;11.760;2023-07-29T09:48:35;9.20;;;3.60;;
71648;SDS011;70112;45.624;11.760;2023-07-29T09:51:12;10.90;;;4.00;;
71648;SDS011;70112;45.624;11.760;2023-07-29T09:53:45;10.70;;;3.90;;
71648;SDS011;70112;45.624;11.760;2023-07-29T09:56:12;8.90;;;4.20;;
71648;SDS011;70112;45.624;11.760;2023-07-29T09:58:38;7.20;;;3.80;;
71648;SDS011;70112;45.624;11.760;2023-07-29T10:01:06;6.60;;;3.80;;
71648;SDS011;70112;45.624;11.760;2023-07-29T10:03:32;8.00;;;3.90;;
71648;SDS011;70112;45.624;11.760;2023-07-29T10:06:02;9.00;;;3.80;;
71648;SDS011;70112;45.624;11.760;2023-07-29T10:08:32;6.60;;;3.50;;
71648;SDS011;70112;45.624;11.760;2023-07-29T10:11:05;7.10;;;4.00;;
71648;SDS011;70112;45.624;11.760;2023-07-29T10:13:32;7.50;;;4.30;;
71648;SDS011;70112;45.624;11.760;2023-07-29T10:15:59;7.70;;;4.40;;
71648;SDS011;70112;45.624;11.760;2023-07-29T10:18:28;5.00;;;3.80;;
71648;SDS011;70112;45.624;11.760;2023-07-29T10:20:56;7.20;;;4.00;;
71648;SDS011;70112;45.624;11.760;2023-07-29T10:23:26;8.40;;;4.00;;
71648;SDS011;70112;45.624;11.760;2023-07-29T10:26:12;8.70;;;4.00;;
71648;SDS011;70112;45.624;11.760;2023-07-29T10:28:46;6.00;;;3.80;;
71648;SDS011;70112;45.624;11.760;2023-07-29T10:31:13;8.20;;;4.10;;
71648;SDS011;70112;45.624;11.760;2023-07-29T10:33:41;8.60;;;3.90;;
71648;SDS011;70112;45.624;11.760;2023-07-29T10:36:08;7.50;;;4.50;;
71648;SDS011;70112;45.624;11.760;2023-07-29T10:38:34;10.90;;;4.30;;
71648;SDS011;70112;45.624;11.760;2023-07-29T10:40:59;10.20;;;3.90;;
71648;SDS011;70112;45.624;11.760;2023-07-29T10:43:38;8.80;;;4.30;;
71648;SDS011;70112;45.624;11.760;2023-07-29T10:46:20;8.10;;;4.20;;
71648;SDS011;70112;45.624;11.760;2023-07-29T10:54:13;8.60;;;4.20;;
71648;SDS011;70112;45.624;11.760;2023-07-29T10:56:46;11.00;;;4.40;;
71648;SDS011;70112;45.624;11.760;2023-07-29T11:01:50;8.00;;;4.30;;
71648;SDS011;70112;45.624;11.760;2023-07-29T11:15:25;9.40;;;4.60;;
71648;SDS011;70112;45.624;11.760;2023-07-29T11:17:57;7.80;;;4.30;;
71648;SDS011;70112;45.624;11.760;2023-07-29T11:20:26;11.50;;;4.50;;
71648;SDS011;70112;45.624;11.760;2023-07-29T11:22:54;6.30;;;4.10;;
71648;SDS011;70112;45.624;11.760;2023-07-29T11:25:21;6.40;;;4.20;;
71648;SDS011;70112;45.624;11.760;2023-07-29T11:27:48;5.30;;;4.20;;
71648;SDS011;70112;45.624;11.760;2023-07-29T11:30:15;7.50;;;4.10;;
71648;SDS011;70112;45.624;11.760;2023-07-29T11:32:44;7.40;;;4.60;;
71648;SDS011;70112;45.624;11.760;2023-07-29T11:35:14;13.30;;;4.60;;
71648;SDS011;70112;45.624;11.760;2023-07-29T11:37:41;9.80;;;4.60;;
71648;SDS011;70112;45.624;11.760;2023-07-29T11:40:09;6.90;;;4.50;;
71648;SDS011;70112;45.624;11.760;2023-07-29T11:42:38;10.00;;;5.00;;
71648;SDS011;70112;45.624;11.760;2023-07-29T11:45:04;5.70;;;4.10;;
71648;SDS011;70112;45.624;11.760;2023-07-29T11:47:35;10.10;;;4.60;;
71648;SDS011;70112;45.624;11.760;2023-07-29T11:50:03;7.00;;;4.40;;
71648;SDS011;70112;45.624;11.760;2023-07-29T11:52:32;7.50;;;4.10;;
71648;SDS011;70112;45.624;11.760;2023-07-29T11:55:00;6.60;;;4.50;;
71648;SDS011;70112;45.624;11.760;2023-07-29T11:57:27;5.40;;;4.30;;
71648;SDS011;70112;45.624;11.760;2023-07-29T11:59:53;6.30;;;3.90;;
71648;SDS011;70112;45.624;11.760;2023-07-29T12:02:19;8.00;;;5.10;;
71648;SDS011;70112;45.624;11.760;2023-07-29T12:04:47;10.10;;;4.80;;
71648;SDS011;70112;45.624;11.760;2023-07-29T12:07:14;8.70;;;4.90;;
71648;SDS011;70112;45.624;11.760;2023-07-29T12:09:41;8.90;;;4.50;;
71648;SDS011;70112;45.624;11.760;2023-07-29T12:12:07;6.90;;;4.30;;
71648;SDS011;70112;45.624;11.760;2023-07-29T12:14:34;9.50;;;4.80;;
71648;SDS011;70112;45.624;11.760;2023-07-29T12:17:04;8.70;;;4.70;;
71648;SDS011;70112;45.624;11.760;2023-07-29T12:19:35;6.70;;;4.40;;
71648;SDS011;70112;45.624;11.760;2023-07-29T12:22:03;9.20;;;4.40;;
71648;SDS011;70112;45.624;11.760;2023-07-29T12:24:31;10.80;;;5.00;;
71648;SDS011;70112;45.624;11.760;2023-07-29T12:26:58;9.90;;;4.80;;
71648;SDS011;70112;45.624;11.760;2023-07-29T12:29:23;8.60;;;4.80;;
71648;SDS011;70112;45.624;11.760;2023-07-29T12:31:57;6.50;;;4.20;;
71648;SDS011;70112;45.624;11.760;2023-07-29T12:34:25;7.80;;;4.50;;
71648;SDS011;70112;45.624;11.760;2023-07-29T12:36:54;7.20;;;4.60;;
71648;SDS011;70112;45.624;11.760;2023-07-29T12:39:25;8.50;;;4.70;;
71648;SDS011;70112;45.624;11.760;2023-07-29T12:41:56;9.20;;;4.50;;
71648;SDS011;70112;45.624;11.760;2023-07-29T12:44:32;7.90;;;4.50;;
71648;SDS011;70112;45.624;11.760;2023-07-29T12:47:03;9.40;;;4.70;;
71648;SDS011;70112;45.624;11.760;2023-07-29T12:49:29;10.20;;;5.10;;
71648;SDS011;70112;45.624;11.760;2023-07-29T12:52:00;9.20;;;4.40;;
71648;SDS011;70112;45.624;11.760;2023-07-29T12:54:26;8.70;;;4.30;;
71648;SDS011;70112;45.624;11.760;2023-07-29T12:56:52;7.70;;;5.10;;
71648;SDS011;70112;45.624;11.760;2023-07-29T12:59:17;6.60;;;4.60;;
71648;SDS011;70112;45.624;11.760;2023-07-29T13:01:43;6.10;;;4.30;;
71648;SDS011;70112;45.624;11.760;2023-07-29T13:04:09;5.60;;;4.00;;
71648;SDS011;70112;45.624;11.760;2023-07-29T13:06:35;10.10;;;4.70;;
71648;SDS011;70112;45.624;11.760;2023-07-29T13:09:01;7.00;;;4.50;;
71648;SDS011;70112;45.624;11.760;2023-07-29T13:11:27;12.60;;;5.30;;
71648;SDS011;70112;45.624;11.760;2023-07-29T13:13:52;8.80;;;4.90;;
71648;SDS011;70112;45.624;11.760;2023-07-29T13:16:17;11.60;;;4.60;;
71648;SDS011;70112;45.624;11.760;2023-07-29T13:18:43;10.90;;;4.60;;
71648;SDS011;70112;45.624;11.760;2023-07-29T13:21:09;8.20;;;4.70;;
71648;SDS011;70112;45.624;11.760;2023-07-29T13:23:34;9.10;;;5.00;;
71648;SDS011;70112;45.624;11.760;2023-07-29T13:26:00;8.70;;;5.10;;
71648;SDS011;70112;45.624;11.760;2023-07-29T13:28:26;8.20;;;4.70;;
71648;SDS011;70112;45.624;11.760;2023-07-29T13:30:51;7.70;;;4.60;;
71648;SDS011;70112;45.624;11.760;2023-07-29T13:33:17;7.40;;;4.30;;
71648;SDS011;70112;45.624;11.760;2023-07-29T13:35:43;8.40;;;4.70;;
71648;SDS011;70112;45.624;11.760;2023-07-29T13:38:08;8.40;;;5.10;;
71648;SDS011;70112;45.624;11.760;2023-07-29T13:40:34;9.00;;;4.70;;
71648;SDS011;70112;45.624;11.760;2023-07-29T13:42:59;8.40;;;4.80;;
71648;SDS011;70112;45.624;11.760;2023-07-29T13:45:25;7.40;;;4.70;;
71648;SDS011;70112;45.624;11.760;2023-07-29T13:47:50;5.70;;;4.40;;
71648;SDS011;70112;45.624;11.760;2023-07-29T13:50:17;12.80;;;5.00;;
71648;SDS011;70112;45.624;11.760;2023-07-29T13:52:43;15.60;;;4.50;;
71648;SDS011;70112;45.624;11.760;2023-07-29T13:55:09;12.30;;;5.20;;
71648;SDS011;70112;45.624;11.760;2023-07-29T13:57:35;9.40;;;4.90;;
71648;SDS011;70112;45.624;11.760;2023-07-29T14:00:01;8.50;;;4.60;;
71648;SDS011;70112;45.624;11.760;2023-07-29T14:02:26;7.00;;;4.40;;
71648;SDS011;70112;45.624;11.760;2023-07-29T14:04:52;9.60;;;5.00;;
71648;SDS011;70112;45.624;11.760;2023-07-29T14:07:18;5.80;;;4.40;;
71648;SDS011;70112;45.624;11.760;2023-07-29T14:09:43;5.80;;;4.50;;
71648;SDS011;70112;45.624;11.760;2023-07-29T14:12:09;9.80;;;4.50;;
71648;SDS011;70112;45.624;11.760;2023-07-29T14:14:40;5.30;;;4.00;;
71648;SDS011;70112;45.624;11.760;2023-07-29T14:17:06;8.80;;;4.90;;
71648;SDS011;70112;45.624;11.760;2023-07-29T14:19:33;10.10;;;4.80;;
71648;SDS011;70112;45.624;11.760;2023-07-29T14:21:59;7.10;;;4.60;;
71648;SDS011;70112;45.624;11.760;2023-07-29T14:24:24;7.90;;;4.80;;
71648;SDS011;70112;45.624;11.760;2023-07-29T14:26:50;11.90;;;4.80;;
71648;SDS011;70112;45.624;11.760;2023-07-29T14:29:15;7.70;;;5.00;;
71648;SDS011;70112;45.624;11.760;2023-07-29T14:31:41;17.80;;;5.60;;
71648;SDS011;70112;45.624;11.760;2023-07-29T14:34:06;177.10;;;17.80;;
71648;SDS011;70112;45.624;11.760;2023-07-29T14:36:32;126.80;;;15.30;;
71648;SDS011;70112;45.624;11.760;2023-07-29T14:38:57;8.10;;;4.90;;
71648;SDS011;70112;45.624;11.760;2023-07-29T14:41:23;8.40;;;4.80;;
71648;SDS011;70112;45.624;11.760;2023-07-29T14:43:49;8.20;;;4.60;;
71648;SDS011;70112;45.624;11.760;2023-07-29T14:46:14;14.20;;;5.40;;
71648;SDS011;70112;45.624;11.760;2023-07-29T14:48:40;6.60;;;4.70;;
71648;SDS011;70112;45.624;11.760;2023-07-29T14:51:05;6.60;;;4.50;;
71648;SDS011;70112;45.624;11.760;2023-07-29T14:53:31;6.90;;;5.10;;
71648;SDS011;70112;45.624;11.760;2023-07-29T14:55:56;7.00;;;4.90;;
71648;SDS011;70112;45.624;11.760;2023-07-29T14:58:22;8.10;;;4.40;;
71648;SDS011;70112;45.624;11.760;2023-07-29T15:00:51;8.10;;;5.00;;
71648;SDS011;70112;45.624;11.760;2023-07-29T15:03:17;5.70;;;4.40;;
71648;SDS011;70112;45.624;11.760;2023-07-29T15:05:42;8.00;;;4.40;;
71648;SDS011;70112;45.624;11.760;2023-07-29T15:08:08;6.40;;;4.60;;
71648;SDS011;70112;45.624;11.760;2023-07-29T15:10:34;8.50;;;4.60;;
71648;SDS011;70112;45.624;11.760;2023-07-29T15:13:00;6.50;;;4.50;;
71648;SDS011;70112;45.624;11.760;2023-07-29T15:15:25;7.30;;;4.30;;
71648;SDS011;70112;45.624;11.760;2023-07-29T15:17:51;9.10;;;4.50;;
71648;SDS011;70112;45.624;11.760;2023-07-29T15:20:16;7.80;;;4.00;;
71648;SDS011;70112;45.624;11.760;2023-07-29T15:22:42;9.30;;;4.20;;
71648;SDS011;70112;45.624;11.760;2023-07-29T15:25:09;6.20;;;4.30;;
71648;SDS011;70112;45.624;11.760;2023-07-29T15:27:35;7.50;;;4.30;;
71648;SDS011;70112;45.624;11.760;2023-07-29T15:30:00;8.40;;;4.00;;
71648;SDS011;70112;45.624;11.760;2023-07-29T15:32:26;5.50;;;4.00;;
71648;SDS011;70112;45.624;11.760;2023-07-29T15:34:53;4.80;;;4.10;;
71648;SDS011;70112;45.624;11.760;2023-07-29T15:37:18;8.70;;;4.50;;
71648;SDS011;70112;45.624;11.760;2023-07-29T15:39:44;8.00;;;4.50;;
71648;SDS011;70112;45.624;11.760;2023-07-29T15:42:09;8.70;;;4.20;;
71648;SDS011;70112;45.624;11.760;2023-07-29T15:44:35;4.90;;;4.00;;
71648;SDS011;70112;45.624;11.760;2023-07-29T15:47:02;8.00;;;4.60;;
71648;SDS011;70112;45.624;11.760;2023-07-29T15:49:28;10.60;;;4.50;;
71648;SDS011;70112;45.624;11.760;2023-07-29T15:51:53;6.80;;;4.60;;
71648;SDS011;70112;45.624;11.760;2023-07-29T15:54:19;11.10;;;4.40;;
71648;SDS011;70112;45.624;11.760;2023-07-29T15:56:44;8.60;;;4.50;;
71648;SDS011;70112;45.624;11.760;2023-07-29T15:59:10;6.20;;;4.10;;
71648;SDS011;70112;45.624;11.760;2023-07-29T16:01:35;6.00;;;4.40;;
71648;SDS011;70112;45.624;11.760;2023-07-29T16:04:01;9.00;;;4.40;;
71648;SDS011;70112;45.624;11.760;2023-07-29T16:06:27;7.20;;;4.10;;
71648;SDS011;70112;45.624;11.760;2023-07-29T16:08:52;7.20;;;4.80;;
71648;SDS011;70112;45.624;11.760;2023-07-29T16:11:19;7.70;;;4.60;;
71648;SDS011;70112;45.624;11.760;2023-07-29T16:13:45;8.20;;;4.10;;